Time;durP1;ratioP1;P1;durP2;ratioP2;P2;SDS_P1;SDS_P2;PMS_P1;PMS_P2;Temp;Humidity;BMP_temperature;BMP_pressure;BME280_temperature;BME280_humidity;BME280_pressure;Samples;Min_cycle;Max_cycle;Signal;HPM_P1;HPM_P2
2022/05/07 00:02:26;;;;;;;;;;;;;;;15.07;73.38;100042.16;5094192;28;20258;-65
2022/05/07 00:04:55;;;;;;;;;;;;;;;15.07;73.40;100036.19;5093610;28;20011;-65
2022/05/07 00:07:23;;;;;;;;;;;;;;;15.06;73.40;100031.91;5093777;28;19954;-65
2022/05/07 00:09:53;;;;;;;;;;;;;;;15.01;73.60;100036.28;5093558;28;19969;-65
2022/05/07 00:12:22;;;;;;;;;;;;;;;15.01;73.53;100036.28;5093562;28;19924;-64
2022/05/07 00:14:51;;;;;;;;;;;;;;;15.04;73.63;100036.25;5093541;28;19924;-65
2022/05/07 00:19:58;;;;;;;;;;;;;;;14.94;73.39;100032.94;5093827;28;19928;-64
2022/05/07 00:22:27;;;;;;;;;;;;;;;14.94;73.39;100034.66;5093225;28;19978;-64
2022/05/07 00:24:57;;;;;;;;;;;;;;;14.90;73.61;100027.84;5075459;28;19924;-64
2022/05/07 00:27:26;;;;;;;;;;;;;;;14.87;73.48;100030.47;5093722;28;20361;-64
2022/05/07 00:29:55;;;;;;;;;;;;;;;14.85;73.81;100034.78;5079514;28;19928;-64
2022/05/07 00:32:24;;;;;;;;;;;;;;;14.78;73.82;100034.81;5097296;28;20011;-64
2022/05/07 00:34:53;;;;;;;;;;;;;;;14.77;74.14;100028.00;5097037;28;19928;-63
2022/05/07 00:37:26;;;;;;;;;;;;;;;14.78;74.00;100024.56;5097038;28;19928;-63
2022/05/07 00:39:55;;;;;;;;;;;;;;;14.72;73.93;100029.78;5097615;28;20018;-63
2022/05/07 00:42:25;;;;;;;;;;;;;;;14.70;74.28;100026.38;5096811;28;19935;-64
2022/05/07 00:44:53;;;;;;;;;;;;;;;14.67;74.08;100026.41;5097222;28;19934;-64
2022/05/07 00:47:23;;;;;;;;;;;;;;;14.66;74.17;100023.88;5078643;28;20014;-64
2022/05/07 00:49:53;;;;;;;;;;;;;;;14.68;74.10;100022.94;5078729;28;20425;-65
2022/05/07 00:52:21;;;;;;;;;;;;;;;14.67;74.42;100021.28;5078958;28;20030;-63
2022/05/07 00:54:50;;;;;;;;;;;;;;;14.66;74.43;100024.69;5078841;28;20328;-63
2022/05/07 00:57:18;;;;;;;;;;;;;;;14.62;74.08;100023.03;5078544;28;19990;-64
2022/05/07 00:59:54;;;;;;;;;;;;;;;14.54;74.22;100017.13;5096836;28;19924;-64
2022/05/07 01:02:24;;;;;;;;;;;;;;;14.53;74.16;100020.59;5078610;28;20281;-65
2022/05/07 01:04:54;;;;;;;;;;;;;;;14.53;74.32;100018.00;5096430;28;19934;-63
2022/05/07 01:07:23;;;;;;;;;;;;;;;14.45;74.32;100014.66;5096659;28;19978;-63
2022/05/07 01:09:52;;;;;;;;;;;;;;;14.39;74.52;100013.91;5078328;28;19925;-64
2022/05/07 01:12:22;;;;;;;;;;;;;;;14.34;74.80;100015.66;5078677;28;19924;-66
2022/05/07 01:14:53;;;;;;;;;;;;;;;14.32;75.15;100013.13;5112071;28;19924;-63
2022/05/07 01:17:22;;;;;;;;;;;;;;;14.32;75.20;100010.53;5078461;28;19924;-64
2022/05/07 01:19:52;;;;;;;;;;;;;;;14.36;75.25;100008.78;5078130;28;19924;-63
2022/05/07 01:22:23;;;;;;;;;;;;;;;14.38;75.18;100005.34;5095845;28;19924;-63
2022/05/07 01:24:52;;;;;;;;;;;;;;;14.39;75.16;100004.47;5112176;28;20011;-63
2022/05/07 01:27:21;;;;;;;;;;;;;;;14.35;75.41;99997.66;5095936;28;19924;-64
2022/05/07 01:29:49;;;;;;;;;;;;;;;14.32;75.11;100002.84;5077961;28;19924;-64
2022/05/07 01:32:18;;;;;;;;;;;;;;;14.31;75.58;99996.00;5078180;28;20370;-64
2022/05/07 01:34:47;;;;;;;;;;;;;;;14.34;75.50;100001.09;5077759;28;19924;-64
2022/05/07 01:37:32;;;;;;;;;;;;;;;14.38;75.19;100001.91;5096141;28;19924;-64
2022/05/07 01:40:00;;;;;;;;;;;;;;;14.42;75.58;99999.28;5077813;28;19928;-64
2022/05/07 01:42:31;;;;;;;;;;;;;;;14.41;75.41;100007.88;5077765;28;19924;-64
2022/05/07 01:45:00;;;;;;;;;;;;;;;14.38;75.33;100002.75;5095951;28;19931;-65
2022/05/07 01:50:08;;;;;;;;;;;;;;;14.42;75.31;99993.31;5111464;28;19959;-64
2022/05/07 01:52:41;;;;;;;;;;;;;;;14.43;75.36;99990.72;5095884;28;19977;-65
2022/05/07 01:55:18;;;;;;;;;;;;;;;14.48;75.41;99998.38;5077522;28;19924;-63
2022/05/07 01:58:01;;;;;;;;;;;;;;;14.46;75.13;99990.69;5095367;28;19928;-63
2022/05/07 02:00:30;;;;;;;;;;;;;;;14.43;75.64;99985.59;5077615;28;20435;-63
2022/05/07 02:03:02;;;;;;;;;;;;;;;14.42;75.43;99989.00;5077596;28;19955;-64
2022/05/07 02:05:31;;;;;;;;;;;;;;;14.36;75.61;99978.81;5095523;28;19970;-63
2022/05/07 02:08:01;;;;;;;;;;;;;;;14.30;76.04;99986.56;5095579;28;19928;-64
2022/05/07 02:10:30;;;;;;;;;;;;;;;14.28;76.18;99985.72;5111044;28;19973;-64
2022/05/07 02:13:02;;;;;;;;;;;;;;;14.29;75.87;99990.00;5095175;28;19931;-63
2022/05/07 02:15:35;;;;;;;;;;;;;;;14.24;75.70;99984.06;5077336;28;19969;-64
2022/05/07 02:18:04;;;;;;;;;;;;;;;14.23;75.97;99981.53;5077321;28;19928;-63
2022/05/07 02:20:33;;;;;;;;;;;;;;;14.25;75.73;99990.91;5094055;28;19970;-64
2022/05/07 02:23:03;;;;;;;;;;;;;;;14.24;76.04;99989.19;5076998;28;19977;-63
2022/05/07 02:25:31;;;;;;;;;;;;;;;14.24;76.22;99989.19;5060470;28;19931;-65
2022/05/07 02:28:07;;;;;;;;;;;;;;;14.27;76.05;99978.91;5076821;28;19973;-63
2022/05/07 02:30:36;;;;;;;;;;;;;;;14.26;75.89;99984.88;5076845;28;19928;-64
2022/05/07 02:33:07;;;;;;;;;;;;;;;14.30;76.47;99984.00;5076804;28;19924;-64
2022/05/07 02:35:38;;;;;;;;;;;;;;;14.32;75.76;99987.44;5110420;28;19924;-63
2022/05/07 02:38:09;;;;;;;;;;;;;;;14.30;75.74;99984.00;5076791;28;19931;-64
2022/05/07 02:43:31;;;;;;;;;;;;;;;14.34;75.71;99988.25;5076527;28;19930;-63
2022/05/07 02:46:00;;;;;;;;;;;;;;;14.34;75.44;99990.84;5076424;28;20018;-63
2022/05/07 02:48:29;;;;;;;;;;;;;;;14.28;75.96;99993.41;5076635;28;19924;-63
2022/05/07 02:50:58;;;;;;;;;;;;;;;14.26;75.72;99987.47;5076403;28;19947;-63
2022/05/07 02:53:31;;;;;;;;;;;;;;;14.25;75.88;99985.78;5076444;28;19924;-63
2022/05/07 02:56:00;;;;;;;;;;;;;;;14.25;75.96;99985.78;5094386;28;20021;-63
2022/05/07 02:58:29;;;;;;;;;;;;;;;14.24;75.82;99986.63;5094351;28;20442;-63
2022/05/07 03:00:58;;;;;;;;;;;;;;;14.22;75.81;99988.38;5076613;28;19924;-63
2022/05/07 03:03:29;;;;;;;;;;;;;;;14.19;75.69;99988.38;5076226;28;19924;-63
2022/05/07 03:06:04;;;;;;;;;;;;;;;14.15;76.13;99989.28;5076624;28;20294;-63
2022/05/07 03:08:41;;;;;;;;;;;;;;;14.18;75.91;99989.25;5109887;28;19966;-63
2022/05/07 03:11:09;;;;;;;;;;;;;;;14.23;75.73;99986.66;5076274;28;19924;-63
2022/05/07 03:13:38;;;;;;;;;;;;;;;14.24;75.61;99991.75;5059706;28;20388;-64
2022/05/07 03:16:08;;;;;;;;;;;;;;;14.26;75.51;99997.72;5076464;28;19931;-64
2022/05/07 03:18:37;;;;;;;;;;;;;;;14.24;75.27;99993.47;5094270;28;20361;-64
2022/05/07 03:21:06;;;;;;;;;;;;;;;14.26;75.30;99992.59;5094092;28;19973;-64
2022/05/07 03:23:34;;;;;;;;;;;;;;;14.26;75.39;100002.84;5094044;28;19928;-63
2022/05/07 03:26:09;;;;;;;;;;;;;;;14.25;75.20;100006.31;5076092;28;20338;-63
2022/05/07 03:28:41;;;;;;;;;;;;;;;14.29;75.62;100007.97;5094166;28;20377;-64
2022/05/07 03:31:22;;;;;;;;;;;;;;;14.25;74.99;100011.44;5110078;28;19924;-64
2022/05/07 03:33:54;;;;;;;;;;;;;;;14.18;75.01;100004.66;5109743;28;19924;-63
2022/05/07 03:36:27;;;;;;;;;;;;;;;14.19;75.05;100008.06;5076235;28;20366;-64
2022/05/07 03:38:56;;;;;;;;;;;;;;;14.14;75.47;100008.13;5093833;28;19924;-64
2022/05/07 03:41:33;;;;;;;;;;;;;;;14.19;75.03;100016.63;5094225;28;20286;-64
2022/05/07 03:44:01;;;;;;;;;;;;;;;14.23;74.99;100013.16;5093895;28;19924;-64
2022/05/07 03:46:30;;;;;;;;;;;;;;;14.28;75.27;100019.09;5093845;28;19924;-64
2022/05/07 03:49:02;;;;;;;;;;;;;;;14.36;75.17;100016.47;5093633;28;19931;-63
2022/05/07 03:53:29;;;;;;;;;;;;;;;14.38;75.40;100028.44;5076081;28;19924;-64
2022/05/07 03:54:24;;;;;;;;;;;;;;;14.40;75.74;100036.97;5076073;28;20438;-65
2022/05/07 03:56:54;;;;;;;;;;;;;;;14.40;76.02;100049.81;5109544;28;19924;-65
2022/05/07 03:59:28;;;;;;;;;;;;;;;14.38;75.86;100056.69;5075622;28;19928;-65
2022/05/07 04:01:56;;;;;;;;;;;;;;;14.38;76.16;100066.09;5075723;28;19931;-65
2022/05/07 04:04:36;;;;;;;;;;;;;;;14.40;76.06;100072.94;5079166;28;20027;-65
2022/05/07 04:07:09;;;;;;;;;;;;;;;14.42;76.25;100078.91;5079925;28;19924;-65
2022/05/07 04:09:43;;;;;;;;;;;;;;;14.42;76.35;100066.06;5079289;28;20015;-66
2022/05/07 04:12:31;;;;;;;;;;;;;;;14.39;76.63;100070.38;5079740;28;20341;-66
2022/05/07 04:15:02;;;;;;;;;;;;;;;14.42;77.09;100080.66;5097788;28;19946;-67
2022/05/07 04:17:34;;;;;;;;;;;;;;;14.35;77.24;100077.25;5113186;28;19930;-66
2022/05/07 04:20:05;;;;;;;;;;;;;;;14.30;77.84;100081.59;5079491;28;19970;-66
2022/05/07 04:22:38;;;;;;;;;;;;;;;14.25;77.72;100088.47;5113049;28;19924;-66
2022/05/07 04:25:08;;;;;;;;;;;;;;;14.27;78.31;100091.88;5079159;28;19924;-67
2022/05/07 04:27:43;;;;;;;;;;;;;;;14.22;78.79;100096.19;5113024;28;19930;-67
2022/05/07 04:30:12;;;;;;;;;;;;;;;14.11;79.13;100101.41;5078933;28;19925;-67
2022/05/07 04:32:41;;;;;;;;;;;;;;;14.07;79.60;100109.16;5079096;28;19924;-69
2022/05/07 04:35:10;;;;;;;;;;;;;;;14.00;79.62;100113.50;5079250;28;20457;-68
2022/05/07 04:37:43;;;;;;;;;;;;;;;14.02;79.76;100108.34;5096997;28;19947;-67
2022/05/07 04:40:12;;;;;;;;;;;;;;;14.01;80.31;100094.63;5078892;28;19977;-66
2022/05/07 04:42:48;;;;;;;;;;;;;;;13.99;80.89;100105.78;5079205;28;20018;-66
2022/05/07 04:45:18;;;;;;;;;;;;;;;13.94;81.16;100112.69;5096920;28;19924;-67
2022/05/07 04:48:07;;;;;;;;;;;;;;;13.96;81.10;100108.41;5096324;28;19930;-65
2022/05/07 04:50:37;;;;;;;;;;;;;;;13.97;81.55;100117.78;5078885;28;19947;-66
2022/05/07 04:53:21;;;;;;;;;;;;;;;13.98;81.68;100115.22;5097086;28;19924;-65
2022/05/07 04:56:06;;;;;;;;;;;;;;;13.98;82.17;100117.78;5080310;28;19978;-63
2022/05/07 04:58:42;;;;;;;;;;;;;;;13.94;82.55;100125.53;5079131;28;19970;-65
2022/05/07 05:01:12;;;;;;;;;;;;;;;13.90;82.63;100121.25;5078847;28;19931;-64
2022/05/07 05:03:47;;;;;;;;;;;;;;;13.93;82.52;100131.50;5096548;28;20002;-64
2022/05/07 05:06:22;;;;;;;;;;;;;;;13.94;83.02;100128.09;5078825;28;19931;-64
2022/05/07 05:09:06;;;;;;;;;;;;;;;13.95;82.74;100129.78;5096741;28;19947;-64
2022/05/07 05:11:42;;;;;;;;;;;;;;;14.02;82.77;100131.44;5078377;28;19931;-64
2022/05/07 05:17:01;;;;;;;;;;;;;;;14.00;82.91;100135.72;5112093;28;19925;-64
2022/05/07 05:19:30;;;;;;;;;;;;;;;13.97;82.61;100138.31;5078264;28;19924;-64
2022/05/07 05:22:08;;;;;;;;;;;;;;;13.92;83.00;100140.06;5095934;28;20386;-64
2022/05/07 05:24:40;;;;;;;;;;;;;;;13.96;82.72;100137.44;5078099;28;20431;-64
2022/05/07 05:27:21;;;;;;;;;;;;;;;14.00;82.95;100140.84;5096077;28;19931;-64
2022/05/07 05:29:55;;;;;;;;;;;;;;;14.04;83.22;100145.09;5077979;28;20015;-64
2022/05/07 05:32:31;;;;;;;;;;;;;;;14.09;83.14;100153.63;5112027;28;19928;-63
2022/05/07 05:35:03;;;;;;;;;;;;;;;14.07;82.74;100145.94;5077949;28;19974;-64
2022/05/07 05:37:39;;;;;;;;;;;;;;;14.15;82.81;100155.31;5095890;28;19924;-64
2022/05/07 05:40:08;;;;;;;;;;;;;;;14.20;82.60;100151.00;5095823;28;19938;-64
2022/05/07 05:42:45;;;;;;;;;;;;;;;14.27;82.65;100158.63;5077667;28;20332;-64
2022/05/07 05:45:17;;;;;;;;;;;;;;;14.28;82.53;100157.75;5112147;28;20278;-66
2022/05/07 05:47:48;;;;;;;;;;;;;;;14.31;82.32;100155.19;5077981;28;20364;-65
2022/05/07 05:50:17;;;;;;;;;;;;;;;14.35;82.41;100156.88;5077488;28;19932;-66
2022/05/07 05:52:47;;;;;;;;;;;;;;;14.39;82.65;100161.13;5076996;28;19928;-68
2022/05/07 05:55:17;;;;;;;;;;;;;;;14.33;82.64;100168.00;5101275;28;20437;-66
2022/05/07 05:57:50;;;;;;;;;;;;;;;14.37;82.24;100157.69;5062182;28;20340;-64
2022/05/07 06:00:22;;;;;;;;;;;;;;;14.39;82.63;100166.28;5057563;28;20290;-64
2022/05/07 06:02:52;;;;;;;;;;;;;;;14.38;82.23;100172.25;5090503;28;20337;-65
2022/05/07 06:05:29;;;;;;;;;;;;;;;14.34;82.04;100173.16;5074929;28;19974;-64
2022/05/07 06:08:12;;;;;;;;;;;;;;;14.30;82.21;100174.03;5074707;28;19925;-64
2022/05/07 06:10:41;;;;;;;;;;;;;;;14.34;82.16;100170.59;5074968;28;19947;-64
2022/05/07 06:13:11;;;;;;;;;;;;;;;14.36;82.14;100163.72;5056918;28;19970;-64
2022/05/07 06:15:51;;;;;;;;;;;;;;;14.37;82.04;100160.28;5056857;28;19979;-64
2022/05/07 06:18:25;;;;;;;;;;;;;;;14.41;82.35;100161.09;5057257;28;20401;-64
2022/05/07 06:21:03;;;;;;;;;;;;;;;14.42;82.32;100161.09;5056630;28;19924;-64
2022/05/07 06:23:37;;;;;;;;;;;;;;;14.49;82.45;100164.47;5056783;28;19928;-64
2022/05/07 06:28:44;;;;;;;;;;;;;;;14.52;82.43;100164.44;5098009;28;20289;-65
2022/05/07 06:31:17;;;;;;;;;;;;;;;14.56;82.72;100166.13;5067274;28;19928;-63
2022/05/07 06:33:47;;;;;;;;;;;;;;;14.54;82.79;100163.53;5077075;28;19928;-64
2022/05/07 06:36:16;;;;;;;;;;;;;;;14.51;82.46;100163.59;5074300;28;19925;-64
2022/05/07 06:38:44;;;;;;;;;;;;;;;14.52;83.06;100173.00;5074240;28;19959;-65
2022/05/07 06:41:14;;;;;;;;;;;;;;;14.57;82.92;100163.53;5074921;28;20023;-66
2022/05/07 06:43:52;;;;;;;;;;;;;;;14.51;83.27;100158.47;5056988;28;19924;-66
2022/05/07 06:46:33;;;;;;;;;;;;;;;14.45;83.11;100157.63;5074162;28;19930;-66
2022/05/07 06:49:08;;;;;;;;;;;;;;;14.35;82.86;100156.88;5056661;28;19931;-65
2022/05/07 06:52:03;;;;;;;;;;;;;;;14.39;83.38;100156.00;5070946;28;19924;-65
2022/05/07 06:54:32;;;;;;;;;;;;;;;14.38;83.55;100161.97;5074095;28;19951;-65
2022/05/07 06:57:00;;;;;;;;;;;;;;;14.40;83.54;100165.38;5074387;28;20373;-66
2022/05/07 06:59:29;;;;;;;;;;;;;;;14.38;83.98;100169.69;5073953;28;19959;-66
2022/05/07 07:01:59;;;;;;;;;;;;;;;14.34;83.77;100168.03;5074619;28;20320;-65
2022/05/07 07:04:28;;;;;;;;;;;;;;;14.34;83.75;100165.44;5073992;28;19994;-65
2022/05/07 07:06:56;;;;;;;;;;;;;;;14.34;84.05;100175.72;5073630;28;19956;-65
2022/05/07 07:09:25;;;;;;;;;;;;;;;14.36;83.99;100163.72;5074449;28;20015;-65
2022/05/07 07:11:53;;;;;;;;;;;;;;;14.38;84.38;100169.69;5074083;28;19928;-66
2022/05/07 07:14:24;;;;;;;;;;;;;;;14.34;84.13;100165.44;5073908;28;19970;-66
2022/05/07 07:16:52;;;;;;;;;;;;;;;14.39;84.21;100158.56;5073332;28;19964;-64
2022/05/07 07:19:23;;;;;;;;;;;;;;;14.41;84.12;100167.09;5073933;28;19924;-65
2022/05/07 07:21:52;;;;;;;;;;;;;;;14.37;84.29;100170.53;5073498;28;19929;-64
2022/05/07 07:24:22;;;;;;;;;;;;;;;14.38;84.64;100167.13;5073623;28;20314;-64
2022/05/07 07:26:51;;;;;;;;;;;;;;;14.40;84.21;100169.66;5073791;28;19928;-64
2022/05/07 07:29:20;;;;;;;;;;;;;;;14.50;84.52;100172.16;5073651;28;19924;-64
2022/05/07 07:31:48;;;;;;;;;;;;;;;14.51;84.31;100173.88;5073816;28;19924;-63
2022/05/07 07:34:18;;;;;;;;;;;;;;;14.42;84.27;100168.78;5074082;28;19987;-63
2022/05/07 07:36:50;;;;;;;;;;;;;;;14.43;84.13;100162.81;5074399;28;20405;-63
2022/05/07 07:39:20;;;;;;;;;;;;;;;14.45;83.97;100166.19;5078313;28;19928;-63
2022/05/07 07:41:49;;;;;;;;;;;;;;;14.54;84.53;100163.53;5077683;28;19924;-63
2022/05/07 07:44:18;;;;;;;;;;;;;;;14.59;84.52;100166.06;5077752;28;19928;-65
2022/05/07 07:49:28;;;;;;;;;;;;;;;14.64;84.68;100167.75;5077698;28;19974;-64
2022/05/07 07:52:01;;;;;;;;;;;;;;;14.74;84.32;100164.22;5077551;28;19924;-64
2022/05/07 07:54:33;;;;;;;;;;;;;;;14.80;84.58;100159.91;5077829;28;19963;-64
2022/05/07 07:57:08;;;;;;;;;;;;;;;14.81;84.17;100153.88;5077503;28;19924;-64
2022/05/07 07:59:46;;;;;;;;;;;;;;;14.83;84.37;100155.56;5077264;28;19925;-64
2022/05/07 08:02:15;;;;;;;;;;;;;;;14.85;84.00;100159.00;5077407;28;19924;-64
2022/05/07 08:04:47;;;;;;;;;;;;;;;14.92;84.09;100154.63;5077393;28;20375;-64
2022/05/07 08:12:37;;;;;;;;;;;;;;;15.12;83.63;100157.81;5077053;28;19924;-63
2022/05/07 08:15:07;;;;;;;;;;;;;;;15.19;83.49;100154.28;5077031;28;19931;-64
2022/05/07 08:17:35;;;;;;;;;;;;;;;15.20;83.28;100151.72;5077318;28;20374;-63
2022/05/07 08:20:09;;;;;;;;;;;;;;;15.20;83.15;100156.00;5077330;28;19931;-64
2022/05/07 08:22:48;;;;;;;;;;;;;;;15.20;82.95;100156.00;5076951;28;19960;-64
2022/05/07 08:25:17;;;;;;;;;;;;;;;15.29;82.78;100155.91;5077295;28;19924;-64
2022/05/07 08:27:54;;;;;;;;;;;;;;;15.38;82.68;100146.34;5076881;28;19970;-64
2022/05/07 08:30:22;;;;;;;;;;;;;;;15.40;82.73;100154.06;5077257;28;19925;-63
2022/05/07 08:32:54;;;;;;;;;;;;;;;15.37;82.48;100151.50;5076646;28;20374;-63
2022/05/07 08:35:23;;;;;;;;;;;;;;;15.49;82.16;100148.81;5077204;28;19990;-64
2022/05/07 08:37:54;;;;;;;;;;;;;;;15.64;82.43;100156.34;5076607;28;19928;-64
2022/05/07 08:40:27;;;;;;;;;;;;;;;15.80;81.82;100159.53;5076825;28;19924;-65
2022/05/07 08:43:05;;;;;;;;;;;;;;;16.00;81.41;100157.53;5076987;28;19924;-65
2022/05/07 08:45:33;;;;;;;;;;;;;;;16.17;80.50;100150.41;5076561;28;19924;-65
2022/05/07 08:48:06;;;;;;;;;;;;;;;16.32;79.74;100159.59;5076447;28;19925;-65
2022/05/07 08:50:34;;;;;;;;;;;;;;;16.44;78.72;100159.38;5075719;28;19970;-65
2022/05/07 08:53:09;;;;;;;;;;;;;;;16.51;78.19;100156.72;5076351;28;19924;-65
2022/05/07 08:55:37;;;;;;;;;;;;;;;16.60;77.35;100158.31;5058828;28;19924;-65
2022/05/07 08:58:06;;;;;;;;;;;;;;;16.81;76.66;100155.34;5076667;28;19986;-65
2022/05/07 09:00:38;;;;;;;;;;;;;;;16.92;76.23;100161.13;5076427;28;19978;-65
2022/05/07 09:03:16;;;;;;;;;;;;;;;16.92;75.21;100158.56;5077191;28;19924;-65
2022/05/07 09:05:45;;;;;;;;;;;;;;;16.92;75.43;100152.53;5076297;28;19925;-66
2022/05/07 09:08:16;;;;;;;;;;;;;;;17.07;75.14;100158.28;5076402;28;19924;-65
2022/05/07 09:10:53;;;;;;;;;;;;;;;17.17;75.20;100148.63;5076876;28;19924;-64
2022/05/07 09:13:22;;;;;;;;;;;;;;;17.29;75.09;100144.06;5075859;28;19967;-65
2022/05/07 09:15:54;;;;;;;;;;;;;;;17.46;75.09;100150.59;5075968;28;20409;-65
2022/05/07 09:18:23;;;;;;;;;;;;;;;17.59;74.52;100146.94;5076564;28;19979;-65
2022/05/07 09:21:15;;;;;;;;;;;;;;;17.81;74.08;100142.97;5075973;28;20374;-65
2022/05/07 09:24:02;;;;;;;;;;;;;;;18.01;73.47;100143.34;5076122;28;20341;-64
2022/05/07 09:26:31;;;;;;;;;;;;;;;18.02;72.42;100148.47;5075742;28;19924;-64
2022/05/07 09:29:03;;;;;;;;;;;;;;;17.87;71.43;100148.00;5076376;28;20347;-64
2022/05/07 09:31:33;;;;;;;;;;;;;;;17.95;71.68;100141.75;5076073;28;19925;-64
2022/05/07 09:36:53;;;;;;;;;;;;;;;17.97;71.37;100139.16;5074999;28;19970;-64
2022/05/07 09:39:33;;;;;;;;;;;;;;;18.03;71.35;100145.03;5075582;28;19975;-64
2022/05/07 09:42:11;;;;;;;;;;;;;;;18.08;71.48;100132.84;5075783;28;19955;-64
2022/05/07 09:44:40;;;;;;;;;;;;;;;18.12;71.27;100130.16;5057703;28;19928;-64
2022/05/07 09:47:12;;;;;;;;;;;;;;;18.21;71.22;100133.38;5075420;28;19926;-64
2022/05/07 09:52:36;;;;;;;;;;;;;;;18.56;70.44;100120.47;5075579;28;20342;-65
2022/05/07 09:57:49;;;;;;;;;;;;;;;18.76;68.60;100111.34;5075284;28;19933;-65
2022/05/07 10:00:19;;;;;;;;;;;;;;;18.85;68.46;100106.75;5056888;28;20333;-65
2022/05/07 10:03:00;;;;;;;;;;;;;;;19.03;68.15;100105.38;5074692;28;19959;-65
2022/05/07 10:05:39;;;;;;;;;;;;;;;18.93;67.33;100102.19;5075365;28;20391;-65
2022/05/07 10:08:16;;;;;;;;;;;;;;;18.86;67.91;100102.44;5074949;28;19959;-65
2022/05/07 10:10:47;;;;;;;;;;;;;;;18.84;67.72;100102.47;5075238;28;20462;-64
2022/05/07 10:13:17;;;;;;;;;;;;;;;18.99;67.81;100096.00;5074797;28;19924;-64
2022/05/07 10:15:45;;;;;;;;;;;;;;;19.17;67.44;100092.91;5075512;28;19928;-64
2022/05/07 10:18:17;;;;;;;;;;;;;;;19.32;66.66;100093.31;5074826;28;20350;-64
2022/05/07 10:20:49;;;;;;;;;;;;;;;19.34;65.69;100096.69;5074755;28;19931;-64
2022/05/07 10:23:28;;;;;;;;;;;;;;;19.35;65.27;100082.88;5075062;28;19932;-65
2022/05/07 10:26:02;;;;;;;;;;;;;;;19.42;66.22;100083.56;5074665;28;19924;-64
2022/05/07 10:28:38;;;;;;;;;;;;;;;19.59;65.77;100078.72;5074530;28;20003;-64
2022/05/07 10:31:17;;;;;;;;;;;;;;;19.70;64.91;100079.22;5074667;28;19971;-65
2022/05/07 10:33:46;;;;;;;;;;;;;;;19.82;64.77;100088.38;5074728;28;20076;-65
2022/05/07 10:36:15;;;;;;;;;;;;;;;19.90;63.99;100082.03;5074515;28;19925;-64
2022/05/07 10:38:49;;;;;;;;;;;;;;;19.92;63.03;100079.38;5074407;28;19983;-63
2022/05/07 10:41:24;;;;;;;;;;;;;;;20.17;63.42;100074.25;5074707;28;19954;-64
2022/05/07 10:44:06;;;;;;;;;;;;;;;20.34;62.94;100071.97;5074445;28;19925;-64
2022/05/07 10:46:44;;;;;;;;;;;;;;;20.34;62.55;100067.63;5073436;28;19932;-64
2022/05/07 10:49:22;;;;;;;;;;;;;;;20.32;62.53;100073.75;5074357;28;19924;-64
2022/05/07 10:51:56;;;;;;;;;;;;;;;20.41;62.56;100063.06;5074186;28;19934;-64
2022/05/07 10:54:26;;;;;;;;;;;;;;;20.33;62.39;100055.56;5074160;28;19924;-64
2022/05/07 10:56:57;;;;;;;;;;;;;;;20.33;62.49;100055.56;5074596;28;20019;-65
2022/05/07 10:59:27;;;;;;;;;;;;;;;20.39;62.12;100054.50;5074097;28;19978;-64
2022/05/07 11:02:04;;;;;;;;;;;;;;;20.39;61.28;100049.31;5074180;28;19924;-64
2022/05/07 11:04:42;;;;;;;;;;;;;;;20.40;61.24;100046.66;5074038;28;19931;-66
2022/05/07 11:07:11;;;;;;;;;;;;;;;20.47;61.06;100048.13;5074073;28;20379;-65
2022/05/07 11:09:48;;;;;;;;;;;;;;;20.53;60.98;100047.09;5074014;28;19931;-66
2022/05/07 11:12:18;;;;;;;;;;;;;;;20.42;60.99;100044.03;5073734;28;19970;-66
2022/05/07 11:14:47;;;;;;;;;;;;;;;20.31;60.86;100046.13;5074088;28;20014;-66
2022/05/07 11:17:17;;;;;;;;;;;;;;;20.43;61.03;100045.72;5074273;28;20370;-65
2022/05/07 11:19:46;;;;;;;;;;;;;;;20.59;61.23;100037.31;5074038;28;19956;-65
2022/05/07 11:22:17;;;;;;;;;;;;;;;20.67;60.90;100047.44;5073708;28;19925;-66
2022/05/07 11:24:56;;;;;;;;;;;;;;;20.67;60.04;100044.84;5073573;28;20247;-65
2022/05/07 11:27:32;;;;;;;;;;;;;;;20.66;60.10;100043.13;5073818;28;19925;-65
2022/05/07 11:30:03;;;;;;;;;;;;;;;20.31;60.59;99989.09;5073789;28;20035;-65
2022/05/07 11:32:39;;;;;;;;;;;;;;;20.63;60.96;100032.88;5074111;28;20439;-64
2022/05/07 11:35:17;;;;;;;;;;;;;;;20.69;60.63;100032.66;5074012;28;20324;-65
2022/05/07 11:37:48;;;;;;;;;;;;;;;20.79;60.78;100028.84;5074345;28;20447;-65
2022/05/07 11:40:27;;;;;;;;;;;;;;;20.87;60.69;100026.81;5074098;28;20286;-66
2022/05/07 11:45:43;;;;;;;;;;;;;;;20.90;59.30;100021.47;5073532;28;19924;-65
2022/05/07 11:48:16;;;;;;;;;;;;;;;20.89;59.45;100014.63;5073603;28;19962;-64
2022/05/07 11:50:52;;;;;;;;;;;;;;;21.03;60.00;100022.72;5073607;28;20019;-63
2022/05/07 11:53:22;;;;;;;;;;;;;;;21.14;60.33;100015.41;5073619;28;19931;-64
2022/05/07 11:55:51;;;;;;;;;;;;;;;21.13;60.34;100018.91;5073722;28;19929;-64
2022/05/07 11:58:21;;;;;;;;;;;;;;;21.11;59.97;100015.53;5073579;28;19939;-65
2022/05/07 12:00:51;;;;;;;;;;;;;;;21.06;59.81;100022.66;5073545;28;19932;-65
2022/05/07 12:03:20;;;;;;;;;;;;;;;20.83;59.30;100014.81;5073554;28;20385;-65
2022/05/07 12:05:49;;;;;;;;;;;;;;;20.76;59.02;100004.72;5073519;28;19932;-64
2022/05/07 12:08:22;;;;;;;;;;;;;;;20.67;59.27;100004.19;5073743;28;20037;-64
2022/05/07 12:10:51;;;;;;;;;;;;;;;20.60;59.81;100012.25;5073862;28;20020;-64
2022/05/07 12:13:22;;;;;;;;;;;;;;;20.54;59.98;100008.13;5073314;28;19925;-66
2022/05/07 12:18:33;;;;;;;;;;;;;;;20.54;60.51;99991.69;5073808;28;20300;-65
2022/05/07 12:21:01;;;;;;;;;;;;;;;20.61;60.22;99994.00;5073312;28;20007;-64
2022/05/07 12:31:45;;;;;;;;;;;;;;;20.58;59.10;99988.13;5076943;28;19925;-66
2022/05/07 12:34:14;;;;;;;;;;;;;;;20.51;58.47;99990.09;5076719;28;19932;-64
2022/05/07 12:36:43;;;;;;;;;;;;;;;20.61;57.93;99999.19;5076850;28;19935;-65
2022/05/07 12:39:15;;;;;;;;;;;;;;;20.65;58.13;99997.34;5076658;28;19974;-65
2022/05/07 12:41:44;;;;;;;;;;;;;;;20.66;58.11;99986.91;5076768;28;19925;-65
2022/05/07 12:44:23;;;;;;;;;;;;;;;20.61;58.62;99988.00;5076941;28;19928;-65
2022/05/07 12:46:52;;;;;;;;;;;;;;;20.50;59.34;99984.94;5076658;28;19925;-64
2022/05/07 12:49:21;;;;;;;;;;;;;;;20.54;59.89;99981.31;5077167;28;20338;-65
2022/05/07 12:51:51;;;;;;;;;;;;;;;20.54;59.61;99971.81;5076465;28;19946;-65
2022/05/07 12:54:19;;;;;;;;;;;;;;;20.71;59.77;99973.78;5076849;28;20332;-65
2022/05/07 12:56:48;;;;;;;;;;;;;;;20.65;59.18;99968.81;5076464;28;20019;-65
2022/05/07 12:59:24;;;;;;;;;;;;;;;20.59;59.10;99966.44;5076452;28;19970;-65
2022/05/07 13:02:03;;;;;;;;;;;;;;;20.67;59.40;99964.41;5076626;28;20011;-64
2022/05/07 13:04:32;;;;;;;;;;;;;;;20.86;59.11;99964.56;5076247;28;19924;-64
2022/05/07 13:07:00;;;;;;;;;;;;;;;20.87;58.03;99968.88;5076302;28;19928;-63
2022/05/07 13:09:31;;;;;;;;;;;;;;;20.86;58.19;99962.81;5076215;28;19977;-63
2022/05/07 13:12:19;;;;;;;;;;;;;;;20.93;58.48;99951.31;5076275;28;19924;-63
2022/05/07 13:14:57;;;;;;;;;;;;;;;21.10;58.73;99948.94;5076183;28;19960;-64
2022/05/07 13:17:27;;;;;;;;;;;;;;;21.22;58.04;99955.38;5076063;28;19924;-66
2022/05/07 13:19:56;;;;;;;;;;;;;;;21.23;57.84;99952.75;5076390;28;19959;-64
2022/05/07 13:22:26;;;;;;;;;;;;;;;21.19;57.82;99945.97;5075720;28;19924;-63
2022/05/07 13:24:57;;;;;;;;;;;;;;;21.21;57.34;99943.34;5076013;28;20378;-63
2022/05/07 13:27:30;;;;;;;;;;;;;;;21.26;56.88;99931.84;5076189;28;19974;-63
2022/05/07 13:30:01;;;;;;;;;;;;;;;21.38;57.26;99935.69;5075834;28;19924;-63
2022/05/07 13:32:34;;;;;;;;;;;;;;;21.45;57.01;99936.31;5076172;28;19995;-64
2022/05/07 13:35:03;;;;;;;;;;;;;;;21.49;56.59;99935.25;5075438;28;19957;-65
2022/05/07 13:37:31;;;;;;;;;;;;;;;21.60;57.69;99933.91;5075989;28;19925;-65
2022/05/07 13:40:00;;;;;;;;;;;;;;;21.72;57.48;99929.94;5075868;28;19951;-65
2022/05/07 13:42:30;;;;;;;;;;;;;;;21.79;57.39;99928.75;5075678;28;20421;-65
2022/05/07 13:45:04;;;;;;;;;;;;;;;21.81;57.07;99924.38;5075783;28;19931;-65
2022/05/07 13:47:36;;;;;;;;;;;;;;;21.78;57.06;99924.50;5075919;28;19978;-64